sensor_id;sensor_type;location;lat;lon;timestamp;P1;durP1;ratioP1;P2;durP2;ratioP2
39958;SDS011;25639;53.634;9.880;2024-02-26T00:00:14;12.82;;;7.45;;
39958;SDS011;25639;53.634;9.880;2024-02-26T00:02:40;14.68;;;8.25;;
39958;SDS011;25639;53.634;9.880;2024-02-26T00:05:06;11.77;;;7.95;;
39958;SDS011;25639;53.634;9.880;2024-02-26T00:07:32;12.02;;;7.53;;
39958;SDS011;25639;53.634;9.880;2024-02-26T00:09:58;11.40;;;7.68;;
39958;SDS011;25639;53.634;9.880;2024-02-26T00:12:23;15.27;;;8.73;;
39958;SDS011;25639;53.634;9.880;2024-02-26T00:14:48;12.52;;;7.50;;
39958;SDS011;25639;53.634;9.880;2024-02-26T00:17:14;17.98;;;7.72;;
39958;SDS011;25639;53.634;9.880;2024-02-26T00:19:40;12.10;;;7.15;;
39958;SDS011;25639;53.634;9.880;2024-02-26T00:22:05;13.75;;;8.27;;
39958;SDS011;25639;53.634;9.880;2024-02-26T00:24:30;12.07;;;6.97;;
39958;SDS011;25639;53.634;9.880;2024-02-26T00:26:56;11.43;;;6.72;;
39958;SDS011;25639;53.634;9.880;2024-02-26T00:29:21;11.40;;;6.82;;
39958;SDS011;25639;53.634;9.880;2024-02-26T00:31:47;10.57;;;6.30;;
39958;SDS011;25639;53.634;9.880;2024-02-26T00:34:12;10.02;;;6.72;;
39958;SDS011;25639;53.634;9.880;2024-02-26T00:36:37;11.45;;;7.47;;
39958;SDS011;25639;53.634;9.880;2024-02-26T00:39:03;13.13;;;7.93;;
39958;SDS011;25639;53.634;9.880;2024-02-26T00:41:28;10.57;;;6.97;;
39958;SDS011;25639;53.634;9.880;2024-02-26T00:43:54;14.25;;;8.18;;
39958;SDS011;25639;53.634;9.880;2024-02-26T00:46:19;14.27;;;8.00;;
39958;SDS011;25639;53.634;9.880;2024-02-26T00:48:44;11.68;;;7.15;;
39958;SDS011;25639;53.634;9.880;2024-02-26T00:51:10;9.38;;;6.43;;
39958;SDS011;25639;53.634;9.880;2024-02-26T00:53:35;10.95;;;7.07;;
39958;SDS011;25639;53.634;9.880;2024-02-26T00:56:00;12.57;;;7.53;;
39958;SDS011;25639;53.634;9.880;2024-02-26T00:58:26;13.82;;;7.90;;
39958;SDS011;25639;53.634;9.880;2024-02-26T01:00:51;11.85;;;7.40;;
39958;SDS011;25639;53.634;9.880;2024-02-26T01:03:17;14.63;;;7.85;;
39958;SDS011;25639;53.634;9.880;2024-02-26T01:05:42;14.05;;;8.25;;
39958;SDS011;25639;53.634;9.880;2024-02-26T01:08:08;13.57;;;8.75;;
39958;SDS011;25639;53.634;9.880;2024-02-26T01:10:33;13.73;;;8.25;;
39958;SDS011;25639;53.634;9.880;2024-02-26T01:12:59;15.15;;;8.38;;
39958;SDS011;25639;53.634;9.880;2024-02-26T01:15:24;14.70;;;8.48;;
39958;SDS011;25639;53.634;9.880;2024-02-26T01:17:50;16.60;;;8.50;;
39958;SDS011;25639;53.634;9.880;2024-02-26T01:20:18;13.10;;;7.97;;
39958;SDS011;25639;53.634;9.880;2024-02-26T01:22:43;14.48;;;8.52;;
39958;SDS011;25639;53.634;9.880;2024-02-26T01:25:09;12.98;;;8.00;;
39958;SDS011;25639;53.634;9.880;2024-02-26T01:27:35;13.68;;;8.18;;
39958;SDS011;25639;53.634;9.880;2024-02-26T01:30:02;15.55;;;7.90;;
39958;SDS011;25639;53.634;9.880;2024-02-26T01:32:31;15.60;;;8.50;;
39958;SDS011;25639;53.634;9.880;2024-02-26T01:34:56;13.25;;;7.63;;
39958;SDS011;25639;53.634;9.880;2024-02-26T01:37:22;15.57;;;8.88;;
39958;SDS011;25639;53.634;9.880;2024-02-26T01:39:47;10.15;;;6.72;;
39958;SDS011;25639;53.634;9.880;2024-02-26T01:42:12;12.70;;;7.78;;
39958;SDS011;25639;53.634;9.880;2024-02-26T01:44:37;12.10;;;7.50;;
39958;SDS011;25639;53.634;9.880;2024-02-26T01:47:03;15.27;;;8.38;;
39958;SDS011;25639;53.634;9.880;2024-02-26T01:49:30;12.98;;;7.18;;
39958;SDS011;25639;53.634;9.880;2024-02-26T01:51:55;14.90;;;8.63;;
39958;SDS011;25639;53.634;9.880;2024-02-26T01:54:21;15.73;;;9.02;;
39958;SDS011;25639;53.634;9.880;2024-02-26T01:56:46;14.40;;;7.95;;
39958;SDS011;25639;53.634;9.880;2024-02-26T01:59:12;12.27;;;7.25;;
39958;SDS011;25639;53.634;9.880;2024-02-26T02:01:38;12.23;;;7.35;;
39958;SDS011;25639;53.634;9.880;2024-02-26T02:04:09;13.77;;;8.80;;
39958;SDS011;25639;53.634;9.880;2024-02-26T02:06:34;15.88;;;9.35;;
39958;SDS011;25639;53.634;9.880;2024-02-26T02:09:01;15.48;;;7.65;;
39958;SDS011;25639;53.634;9.880;2024-02-26T02:11:31;15.57;;;8.48;;
39958;SDS011;25639;53.634;9.880;2024-02-26T02:13:57;11.60;;;7.47;;
39958;SDS011;25639;53.634;9.880;2024-02-26T02:16:22;14.13;;;7.53;;
39958;SDS011;25639;53.634;9.880;2024-02-26T02:18:47;13.45;;;8.65;;
39958;SDS011;25639;53.634;9.880;2024-02-26T02:21:13;12.88;;;7.88;;
39958;SDS011;25639;53.634;9.880;2024-02-26T02:23:38;11.38;;;7.28;;
39958;SDS011;25639;53.634;9.880;2024-02-26T02:26:03;12.70;;;7.88;;
39958;SDS011;25639;53.634;9.880;2024-02-26T02:28:29;14.32;;;8.18;;
39958;SDS011;25639;53.634;9.880;2024-02-26T02:30:54;15.95;;;8.88;;
39958;SDS011;25639;53.634;9.880;2024-02-26T02:33:20;13.55;;;8.10;;
39958;SDS011;25639;53.634;9.880;2024-02-26T02:35:47;14.10;;;7.93;;
39958;SDS011;25639;53.634;9.880;2024-02-26T02:38:12;15.68;;;8.75;;
39958;SDS011;25639;53.634;9.880;2024-02-26T02:40:37;14.90;;;8.20;;
39958;SDS011;25639;53.634;9.880;2024-02-26T02:43:03;14.02;;;7.95;;
39958;SDS011;25639;53.634;9.880;2024-02-26T02:45:29;14.38;;;8.48;;
39958;SDS011;25639;53.634;9.880;2024-02-26T02:47:54;14.02;;;8.50;;
39958;SDS011;25639;53.634;9.880;2024-02-26T02:50:20;14.10;;;7.78;;
39958;SDS011;25639;53.634;9.880;2024-02-26T02:52:45;16.27;;;8.85;;
39958;SDS011;25639;53.634;9.880;2024-02-26T02:55:10;14.10;;;8.18;;
39958;SDS011;25639;53.634;9.880;2024-02-26T02:57:36;15.07;;;8.48;;
39958;SDS011;25639;53.634;9.880;2024-02-26T03:00:06;12.55;;;7.63;;
39958;SDS011;25639;53.634;9.880;2024-02-26T03:02:34;13.40;;;8.32;;
39958;SDS011;25639;53.634;9.880;2024-02-26T03:05:06;15.38;;;8.93;;
39958;SDS011;25639;53.634;9.880;2024-02-26T03:07:31;15.07;;;8.65;;
39958;SDS011;25639;53.634;9.880;2024-02-26T03:09:57;16.08;;;9.00;;
39958;SDS011;25639;53.634;9.880;2024-02-26T03:12:22;13.32;;;7.82;;
39958;SDS011;25639;53.634;9.880;2024-02-26T03:14:48;14.52;;;8.70;;
39958;SDS011;25639;53.634;9.880;2024-02-26T03:17:13;14.07;;;8.38;;
39958;SDS011;25639;53.634;9.880;2024-02-26T03:19:38;12.88;;;7.43;;
39958;SDS011;25639;53.634;9.880;2024-02-26T03:22:04;14.73;;;8.40;;
39958;SDS011;25639;53.634;9.880;2024-02-26T03:24:29;17.42;;;9.13;;
39958;SDS011;25639;53.634;9.880;2024-02-26T03:26:57;17.02;;;9.68;;
39958;SDS011;25639;53.634;9.880;2024-02-26T03:29:22;13.98;;;8.60;;
39958;SDS011;25639;53.634;9.880;2024-02-26T03:31:47;15.30;;;8.70;;
39958;SDS011;25639;53.634;9.880;2024-02-26T03:34:13;18.40;;;9.07;;
39958;SDS011;25639;53.634;9.880;2024-02-26T03:36:39;17.48;;;9.82;;
39958;SDS011;25639;53.634;9.880;2024-02-26T03:39:04;18.85;;;9.90;;
39958;SDS011;25639;53.634;9.880;2024-02-26T03:41:35;19.15;;;9.95;;
39958;SDS011;25639;53.634;9.880;2024-02-26T03:44:01;21.48;;;10.73;;
39958;SDS011;25639;53.634;9.880;2024-02-26T03:46:26;17.58;;;9.88;;
39958;SDS011;25639;53.634;9.880;2024-02-26T03:48:52;16.83;;;9.45;;
39958;SDS011;25639;53.634;9.880;2024-02-26T03:51:17;15.60;;;8.90;;
39958;SDS011;25639;53.634;9.880;2024-02-26T03:53:43;14.00;;;8.23;;
39958;SDS011;25639;53.634;9.880;2024-02-26T03:56:08;16.00;;;9.18;;
39958;SDS011;25639;53.634;9.880;2024-02-26T03:58:39;16.80;;;9.55;;
39958;SDS011;25639;53.634;9.880;2024-02-26T04:01:06;15.27;;;8.43;;
39958;SDS011;25639;53.634;9.880;2024-02-26T04:03:32;16.10;;;8.88;;
39958;SDS011;25639;53.634;9.880;2024-02-26T04:05:57;15.23;;;9.07;;
39958;SDS011;25639;53.634;9.880;2024-02-26T04:08:23;17.30;;;9.10;;
39958;SDS011;25639;53.634;9.880;2024-02-26T04:10:48;15.50;;;8.73;;
39958;SDS011;25639;53.634;9.880;2024-02-26T04:13:13;18.05;;;9.23;;
39958;SDS011;25639;53.634;9.880;2024-02-26T04:15:39;17.38;;;9.45;;
39958;SDS011;25639;53.634;9.880;2024-02-26T04:18:04;16.63;;;8.65;;
39958;SDS011;25639;53.634;9.880;2024-02-26T04:20:30;17.13;;;9.65;;
39958;SDS011;25639;53.634;9.880;2024-02-26T04:22:55;19.13;;;9.55;;
39958;SDS011;25639;53.634;9.880;2024-02-26T04:25:20;18.98;;;10.90;;
39958;SDS011;25639;53.634;9.880;2024-02-26T04:27:46;17.67;;;10.15;;
39958;SDS011;25639;53.634;9.880;2024-02-26T04:30:11;19.65;;;10.02;;
39958;SDS011;25639;53.634;9.880;2024-02-26T04:32:36;18.08;;;9.52;;
39958;SDS011;25639;53.634;9.880;2024-02-26T04:35:02;19.63;;;10.38;;
39958;SDS011;25639;53.634;9.880;2024-02-26T04:37:27;17.48;;;9.85;;
39958;SDS011;25639;53.634;9.880;2024-02-26T04:39:59;20.90;;;11.35;;
39958;SDS011;25639;53.634;9.880;2024-02-26T04:42:25;21.90;;;11.40;;
39958;SDS011;25639;53.634;9.880;2024-02-26T04:44:51;16.60;;;9.95;;
39958;SDS011;25639;53.634;9.880;2024-02-26T04:47:16;22.10;;;11.15;;
39958;SDS011;25639;53.634;9.880;2024-02-26T04:49:41;18.65;;;10.35;;
39958;SDS011;25639;53.634;9.880;2024-02-26T04:52:07;18.77;;;10.13;;
39958;SDS011;25639;53.634;9.880;2024-02-26T04:54:32;16.70;;;10.30;;
39958;SDS011;25639;53.634;9.880;2024-02-26T04:56:58;18.75;;;10.68;;
39958;SDS011;25639;53.634;9.880;2024-02-26T04:59:23;19.15;;;10.38;;
39958;SDS011;25639;53.634;9.880;2024-02-26T05:01:49;16.05;;;8.75;;
39958;SDS011;25639;53.634;9.880;2024-02-26T05:04:16;18.30;;;10.20;;
39958;SDS011;25639;53.634;9.880;2024-02-26T05:06:41;18.85;;;10.18;;
39958;SDS011;25639;53.634;9.880;2024-02-26T05:09:06;17.08;;;10.40;;
39958;SDS011;25639;53.634;9.880;2024-02-26T05:11:31;18.17;;;10.07;;
39958;SDS011;25639;53.634;9.880;2024-02-26T05:13:57;21.30;;;10.10;;
39958;SDS011;25639;53.634;9.880;2024-02-26T05:16:22;19.52;;;9.18;;
39958;SDS011;25639;53.634;9.880;2024-02-26T05:18:49;16.83;;;9.20;;
39958;SDS011;25639;53.634;9.880;2024-02-26T05:21:15;19.52;;;10.48;;
39958;SDS011;25639;53.634;9.880;2024-02-26T05:23:40;17.50;;;10.30;;
39958;SDS011;25639;53.634;9.880;2024-02-26T05:26:07;17.55;;;9.25;;
39958;SDS011;25639;53.634;9.880;2024-02-26T05:28:33;18.30;;;10.13;;
39958;SDS011;25639;53.634;9.880;2024-02-26T05:30:58;18.77;;;11.00;;
39958;SDS011;25639;53.634;9.880;2024-02-26T05:33:23;20.10;;;10.27;;
39958;SDS011;25639;53.634;9.880;2024-02-26T05:35:48;20.02;;;11.15;;
39958;SDS011;25639;53.634;9.880;2024-02-26T05:38:14;18.50;;;10.77;;
39958;SDS011;25639;53.634;9.880;2024-02-26T05:40:39;25.02;;;11.63;;
39958;SDS011;25639;53.634;9.880;2024-02-26T05:43:04;24.67;;;12.65;;
39958;SDS011;25639;53.634;9.880;2024-02-26T05:45:29;28.42;;;14.48;;
39958;SDS011;25639;53.634;9.880;2024-02-26T05:47:55;29.35;;;12.80;;
39958;SDS011;25639;53.634;9.880;2024-02-26T05:50:20;27.67;;;13.60;;
39958;SDS011;25639;53.634;9.880;2024-02-26T05:52:45;27.58;;;13.32;;
39958;SDS011;25639;53.634;9.880;2024-02-26T05:55:11;33.33;;;14.77;;
39958;SDS011;25639;53.634;9.880;2024-02-26T05:57:36;28.13;;;13.73;;
39958;SDS011;25639;53.634;9.880;2024-02-26T06:00:02;38.33;;;15.30;;
39958;SDS011;25639;53.634;9.880;2024-02-26T06:02:30;33.30;;;15.75;;
39958;SDS011;25639;53.634;9.880;2024-02-26T06:04:56;33.83;;;15.35;;
39958;SDS011;25639;53.634;9.880;2024-02-26T06:07:21;34.00;;;15.48;;
39958;SDS011;25639;53.634;9.880;2024-02-26T06:09:47;32.55;;;16.27;;
39958;SDS011;25639;53.634;9.880;2024-02-26T06:12:13;38.08;;;16.70;;
39958;SDS011;25639;53.634;9.880;2024-02-26T06:14:38;30.92;;;15.48;;
39958;SDS011;25639;53.634;9.880;2024-02-26T06:17:04;78.70;;;18.38;;
39958;SDS011;25639;53.634;9.880;2024-02-26T06:19:29;31.30;;;15.90;;
39958;SDS011;25639;53.634;9.880;2024-02-26T06:21:54;43.80;;;16.70;;
39958;SDS011;25639;53.634;9.880;2024-02-26T06:24:19;30.55;;;15.35;;
39958;SDS011;25639;53.634;9.880;2024-02-26T06:26:47;43.95;;;17.50;;
39958;SDS011;25639;53.634;9.880;2024-02-26T06:29:12;42.00;;;17.45;;
39958;SDS011;25639;53.634;9.880;2024-02-26T06:31:37;32.67;;;16.50;;
39958;SDS011;25639;53.634;9.880;2024-02-26T06:34:03;56.65;;;24.08;;
39958;SDS011;25639;53.634;9.880;2024-02-26T06:36:28;55.83;;;20.95;;
39958;SDS011;25639;53.634;9.880;2024-02-26T06:38:53;64.88;;;18.52;;
39958;SDS011;25639;53.634;9.880;2024-02-26T06:41:19;35.25;;;16.83;;
39958;SDS011;25639;53.634;9.880;2024-02-26T06:43:44;84.07;;;19.67;;
39958;SDS011;25639;53.634;9.880;2024-02-26T06:46:09;74.65;;;18.67;;
39958;SDS011;25639;53.634;9.880;2024-02-26T06:48:35;40.60;;;18.13;;
39958;SDS011;25639;53.634;9.880;2024-02-26T06:51:01;69.22;;;20.27;;
39958;SDS011;25639;53.634;9.880;2024-02-26T06:53:27;47.80;;;19.20;;
39958;SDS011;25639;53.634;9.880;2024-02-26T06:55:52;97.15;;;22.17;;
39958;SDS011;25639;53.634;9.880;2024-02-26T06:58:18;39.83;;;18.52;;
39958;SDS011;25639;53.634;9.880;2024-02-26T07:00:43;45.03;;;19.27;;
39958;SDS011;25639;53.634;9.880;2024-02-26T07:03:08;38.78;;;19.02;;
39958;SDS011;25639;53.634;9.880;2024-02-26T07:05:33;106.07;;;21.52;;
39958;SDS011;25639;53.634;9.880;2024-02-26T07:07:59;76.43;;;20.95;;
39958;SDS011;25639;53.634;9.880;2024-02-26T07:10:24;47.22;;;20.60;;
39958;SDS011;25639;53.634;9.880;2024-02-26T07:12:49;55.13;;;19.67;;
39958;SDS011;25639;53.634;9.880;2024-02-26T07:15:14;44.40;;;19.15;;
39958;SDS011;25639;53.634;9.880;2024-02-26T07:17:40;63.78;;;20.48;;
39958;SDS011;25639;53.634;9.880;2024-02-26T07:20:12;60.85;;;19.08;;
39958;SDS011;25639;53.634;9.880;2024-02-26T07:22:37;42.92;;;19.08;;
39958;SDS011;25639;53.634;9.880;2024-02-26T07:25:03;44.78;;;20.58;;
39958;SDS011;25639;53.634;9.880;2024-02-26T07:27:28;58.95;;;18.95;;
39958;SDS011;25639;53.634;9.880;2024-02-26T07:29:54;45.17;;;19.45;;
39958;SDS011;25639;53.634;9.880;2024-02-26T07:32:19;52.38;;;18.23;;
39958;SDS011;25639;53.634;9.880;2024-02-26T07:34:44;42.97;;;19.40;;
39958;SDS011;25639;53.634;9.880;2024-02-26T07:37:13;41.22;;;18.48;;
39958;SDS011;25639;53.634;9.880;2024-02-26T07:39:38;63.97;;;20.20;;
39958;SDS011;25639;53.634;9.880;2024-02-26T07:42:03;47.45;;;19.20;;
39958;SDS011;25639;53.634;9.880;2024-02-26T07:44:29;43.63;;;19.67;;
39958;SDS011;25639;53.634;9.880;2024-02-26T07:46:54;67.07;;;20.50;;
39958;SDS011;25639;53.634;9.880;2024-02-26T07:49:19;43.17;;;18.17;;
39958;SDS011;25639;53.634;9.880;2024-02-26T07:51:45;82.28;;;23.27;;
39958;SDS011;25639;53.634;9.880;2024-02-26T07:54:10;52.75;;;20.27;;
39958;SDS011;25639;53.634;9.880;2024-02-26T07:56:35;112.40;;;24.20;;
39958;SDS011;25639;53.634;9.880;2024-02-26T07:59:00;61.42;;;22.88;;
39958;SDS011;25639;53.634;9.880;2024-02-26T08:01:26;48.53;;;21.73;;
39958;SDS011;25639;53.634;9.880;2024-02-26T08:03:52;97.95;;;23.30;;
39958;SDS011;25639;53.634;9.880;2024-02-26T08:06:20;116.28;;;25.20;;
39958;SDS011;25639;53.634;9.880;2024-02-26T08:08:46;69.90;;;24.13;;
39958;SDS011;25639;53.634;9.880;2024-02-26T08:11:11;142.55;;;26.48;;
39958;SDS011;25639;53.634;9.880;2024-02-26T08:13:36;137.60;;;28.45;;
39958;SDS011;25639;53.634;9.880;2024-02-26T08:16:02;141.82;;;27.95;;
39958;SDS011;25639;53.634;9.880;2024-02-26T08:18:27;121.28;;;25.98;;
39958;SDS011;25639;53.634;9.880;2024-02-26T08:20:52;136.90;;;25.73;;
39958;SDS011;25639;53.634;9.880;2024-02-26T08:23:18;97.30;;;24.58;;
39958;SDS011;25639;53.634;9.880;2024-02-26T08:25:43;77.78;;;24.15;;
39958;SDS011;25639;53.634;9.880;2024-02-26T08:28:08;143.57;;;27.52;;
39958;SDS011;25639;53.634;9.880;2024-02-26T08:30:36;142.73;;;26.85;;
39958;SDS011;25639;53.634;9.880;2024-02-26T08:33:01;87.03;;;24.27;;
39958;SDS011;25639;53.634;9.880;2024-02-26T08:35:26;102.35;;;24.80;;
39958;SDS011;25639;53.634;9.880;2024-02-26T08:37:52;108.10;;;25.98;;
39958;SDS011;25639;53.634;9.880;2024-02-26T08:40:17;87.13;;;24.48;;
39958;SDS011;25639;53.634;9.880;2024-02-26T08:42:44;84.75;;;24.98;;
39958;SDS011;25639;53.634;9.880;2024-02-26T08:45:09;85.70;;;24.50;;
39958;SDS011;25639;53.634;9.880;2024-02-26T08:47:35;85.03;;;25.20;;
39958;SDS011;25639;53.634;9.880;2024-02-26T08:50:00;81.22;;;25.63;;
39958;SDS011;25639;53.634;9.880;2024-02-26T08:52:25;85.72;;;25.33;;
39958;SDS011;25639;53.634;9.880;2024-02-26T08:54:50;80.97;;;25.90;;
39958;SDS011;25639;53.634;9.880;2024-02-26T08:57:16;77.72;;;23.40;;
39958;SDS011;25639;53.634;9.880;2024-02-26T08:59:41;80.28;;;24.73;;
39958;SDS011;25639;53.634;9.880;2024-02-26T09:02:07;76.20;;;24.33;;
39958;SDS011;25639;53.634;9.880;2024-02-26T09:04:34;72.50;;;23.95;;
39958;SDS011;25639;53.634;9.880;2024-02-26T09:07:00;78.13;;;25.73;;
39958;SDS011;25639;53.634;9.880;2024-02-26T09:09:25;75.03;;;25.08;;
39958;SDS011;25639;53.634;9.880;2024-02-26T09:11:51;69.40;;;24.42;;
39958;SDS011;25639;53.634;9.880;2024-02-26T09:14:17;65.80;;;23.65;;
39958;SDS011;25639;53.634;9.880;2024-02-26T09:16:43;77.03;;;25.92;;
39958;SDS011;25639;53.634;9.880;2024-02-26T09:19:08;73.50;;;25.38;;
39958;SDS011;25639;53.634;9.880;2024-02-26T09:21:33;79.13;;;24.38;;
39958;SDS011;25639;53.634;9.880;2024-02-26T09:23:59;71.25;;;23.40;;
39958;SDS011;25639;53.634;9.880;2024-02-26T09:26:24;71.47;;;23.95;;
39958;SDS011;25639;53.634;9.880;2024-02-26T09:28:49;65.55;;;23.73;;
39958;SDS011;25639;53.634;9.880;2024-02-26T09:31:15;71.93;;;24.35;;
39958;SDS011;25639;53.634;9.880;2024-02-26T09:33:41;73.13;;;25.08;;
39958;SDS011;25639;53.634;9.880;2024-02-26T09:36:07;69.22;;;24.80;;
39958;SDS011;25639;53.634;9.880;2024-02-26T09:38:34;65.70;;;23.65;;
39958;SDS011;25639;53.634;9.880;2024-02-26T09:41:02;63.45;;;24.27;;
39958;SDS011;25639;53.634;9.880;2024-02-26T09:43:30;65.70;;;23.45;;
39958;SDS011;25639;53.634;9.880;2024-02-26T09:45:59;64.53;;;23.38;;
39958;SDS011;25639;53.634;9.880;2024-02-26T09:48:25;64.82;;;23.42;;
39958;SDS011;25639;53.634;9.880;2024-02-26T09:50:50;71.93;;;24.65;;
39958;SDS011;25639;53.634;9.880;2024-02-26T09:53:17;60.25;;;23.25;;
39958;SDS011;25639;53.634;9.880;2024-02-26T09:55:43;64.47;;;23.92;;
39958;SDS011;25639;53.634;9.880;2024-02-26T09:58:08;66.53;;;24.67;;
39958;SDS011;25639;53.634;9.880;2024-02-26T10:00:37;68.38;;;25.05;;
39958;SDS011;25639;53.634;9.880;2024-02-26T10:03:04;67.05;;;23.58;;
39958;SDS011;25639;53.634;9.880;2024-02-26T10:05:31;68.13;;;25.67;;
39958;SDS011;25639;53.634;9.880;2024-02-26T10:07:59;66.47;;;23.90;;
39958;SDS011;25639;53.634;9.880;2024-02-26T10:10:26;59.40;;;23.42;;
39958;SDS011;25639;53.634;9.880;2024-02-26T10:12:54;70.80;;;24.23;;
39958;SDS011;25639;53.634;9.880;2024-02-26T10:15:19;65.55;;;25.60;;
39958;SDS011;25639;53.634;9.880;2024-02-26T10:17:44;68.78;;;24.45;;
39958;SDS011;25639;53.634;9.880;2024-02-26T10:20:11;72.93;;;25.00;;
39958;SDS011;25639;53.634;9.880;2024-02-26T10:22:37;65.50;;;23.80;;
39958;SDS011;25639;53.634;9.880;2024-02-26T10:25:03;59.30;;;23.27;;
39958;SDS011;25639;53.634;9.880;2024-02-26T10:27:28;60.03;;;22.70;;
39958;SDS011;25639;53.634;9.880;2024-02-26T10:29:56;60.15;;;23.35;;
39958;SDS011;25639;53.634;9.880;2024-02-26T10:32:22;65.47;;;23.65;;
39958;SDS011;25639;53.634;9.880;2024-02-26T10:34:47;56.13;;;22.27;;
39958;SDS011;25639;53.634;9.880;2024-02-26T10:37:12;55.10;;;22.52;;
39958;SDS011;25639;53.634;9.880;2024-02-26T10:39:38;56.63;;;22.67;;
39958;SDS011;25639;53.634;9.880;2024-02-26T10:42:04;55.40;;;21.95;;
39958;SDS011;25639;53.634;9.880;2024-02-26T10:44:34;58.90;;;22.88;;
39958;SDS011;25639;53.634;9.880;2024-02-26T10:46:59;55.45;;;22.60;;
39958;SDS011;25639;53.634;9.880;2024-02-26T10:49:25;55.95;;;24.02;;
39958;SDS011;25639;53.634;9.880;2024-02-26T10:51:52;50.40;;;21.08;;
39958;SDS011;25639;53.634;9.880;2024-02-26T10:54:21;49.35;;;22.00;;
39958;SDS011;25639;53.634;9.880;2024-02-26T10:56:50;48.17;;;21.67;;
39958;SDS011;25639;53.634;9.880;2024-02-26T10:59:16;47.90;;;21.00;;
39958;SDS011;25639;53.634;9.880;2024-02-26T11:01:45;46.55;;;21.55;;
39958;SDS011;25639;53.634;9.880;2024-02-26T11:04:13;45.83;;;21.40;;
39958;SDS011;25639;53.634;9.880;2024-02-26T11:06:40;42.97;;;19.38;;
39958;SDS011;25639;53.634;9.880;2024-02-26T11:09:06;41.95;;;18.70;;
39958;SDS011;25639;53.634;9.880;2024-02-26T11:11:32;43.30;;;19.40;;
39958;SDS011;25639;53.634;9.880;2024-02-26T11:14:00;39.28;;;18.90;;
39958;SDS011;25639;53.634;9.880;2024-02-26T11:16:28;35.70;;;17.63;;
39958;SDS011;25639;53.634;9.880;2024-02-26T11:18:53;34.42;;;17.75;;
39958;SDS011;25639;53.634;9.880;2024-02-26T11:21:20;37.70;;;19.13;;
39958;SDS011;25639;53.634;9.880;2024-02-26T11:23:55;35.55;;;18.13;;
39958;SDS011;25639;53.634;9.880;2024-02-26T11:26:21;33.00;;;16.58;;
39958;SDS011;25639;53.634;9.880;2024-02-26T11:28:48;35.05;;;17.92;;
39958;SDS011;25639;53.634;9.880;2024-02-26T11:31:16;33.40;;;17.67;;
39958;SDS011;25639;53.634;9.880;2024-02-26T11:33:43;30.17;;;16.38;;
39958;SDS011;25639;53.634;9.880;2024-02-26T11:36:09;29.25;;;16.02;;
39958;SDS011;25639;53.634;9.880;2024-02-26T11:38:34;28.67;;;16.50;;
39958;SDS011;25639;53.634;9.880;2024-02-26T11:41:00;32.50;;;16.63;;
39958;SDS011;25639;53.634;9.880;2024-02-26T11:46:29;28.33;;;14.90;;
39958;SDS011;25639;53.634;9.880;2024-02-26T11:51:52;28.25;;;14.27;;
39958;SDS011;25639;53.634;9.880;2024-02-26T11:54:44;27.52;;;14.43;;
39958;SDS011;25639;53.634;9.880;2024-02-26T11:57:22;27.60;;;14.75;;
39958;SDS011;25639;53.634;9.880;2024-02-26T11:59:52;28.27;;;15.32;;
39958;SDS011;25639;53.634;9.880;2024-02-26T12:02:40;27.70;;;15.15;;
39958;SDS011;25639;53.634;9.880;2024-02-26T12:05:21;32.17;;;15.48;;
39958;SDS011;25639;53.634;9.880;2024-02-26T12:12:59;28.77;;;15.38;;
39958;SDS011;25639;53.634;9.880;2024-02-26T12:15:30;28.75;;;14.73;;
39958;SDS011;25639;53.634;9.880;2024-02-26T12:18:03;28.77;;;15.45;;
39958;SDS011;25639;53.634;9.880;2024-02-26T12:20:30;29.33;;;15.57;;
39958;SDS011;25639;53.634;9.880;2024-02-26T12:22:56;28.77;;;14.30;;
39958;SDS011;25639;53.634;9.880;2024-02-26T12:25:23;26.88;;;14.75;;
39958;SDS011;25639;53.634;9.880;2024-02-26T12:27:51;30.70;;;14.93;;
39958;SDS011;25639;53.634;9.880;2024-02-26T12:30:16;30.55;;;15.73;;
39958;SDS011;25639;53.634;9.880;2024-02-26T12:32:42;26.73;;;14.38;;
39958;SDS011;25639;53.634;9.880;2024-02-26T12:35:08;26.80;;;14.07;;
39958;SDS011;25639;53.634;9.880;2024-02-26T12:37:33;27.38;;;14.65;;
39958;SDS011;25639;53.634;9.880;2024-02-26T12:40:02;24.45;;;13.90;;
39958;SDS011;25639;53.634;9.880;2024-02-26T12:42:29;26.48;;;14.13;;
39958;SDS011;25639;53.634;9.880;2024-02-26T12:44:57;26.27;;;14.38;;
39958;SDS011;25639;53.634;9.880;2024-02-26T12:47:23;25.90;;;13.88;;
39958;SDS011;25639;53.634;9.880;2024-02-26T12:49:48;25.13;;;13.27;;
39958;SDS011;25639;53.634;9.880;2024-02-26T12:52:14;25.83;;;13.90;;
39958;SDS011;25639;53.634;9.880;2024-02-26T12:54:39;25.60;;;13.27;;
39958;SDS011;25639;53.634;9.880;2024-02-26T12:57:07;23.73;;;13.35;;
39958;SDS011;25639;53.634;9.880;2024-02-26T12:59:34;22.48;;;12.70;;
39958;SDS011;25639;53.634;9.880;2024-02-26T13:02:01;25.25;;;13.68;;
39958;SDS011;25639;53.634;9.880;2024-02-26T13:04:28;23.70;;;12.27;;
39958;SDS011;25639;53.634;9.880;2024-02-26T13:06:54;23.83;;;12.93;;
39958;SDS011;25639;53.634;9.880;2024-02-26T13:09:20;23.60;;;13.07;;
39958;SDS011;25639;53.634;9.880;2024-02-26T13:11:52;24.45;;;14.15;;
39958;SDS011;25639;53.634;9.880;2024-02-26T13:14:19;25.98;;;14.10;;
39958;SDS011;25639;53.634;9.880;2024-02-26T13:16:45;31.10;;;16.27;;
39958;SDS011;25639;53.634;9.880;2024-02-26T13:21:44;31.13;;;13.60;;
39958;SDS011;25639;53.634;9.880;2024-02-26T13:24:12;29.25;;;15.02;;
39958;SDS011;25639;53.634;9.880;2024-02-26T13:26:38;27.35;;;13.52;;
39958;SDS011;25639;53.634;9.880;2024-02-26T13:29:03;26.55;;;13.60;;
39958;SDS011;25639;53.634;9.880;2024-02-26T13:31:29;28.20;;;14.23;;
39958;SDS011;25639;53.634;9.880;2024-02-26T13:33:54;28.33;;;14.70;;
39958;SDS011;25639;53.634;9.880;2024-02-26T13:36:21;29.27;;;14.77;;
39958;SDS011;25639;53.634;9.880;2024-02-26T13:38:54;32.15;;;16.48;;
39958;SDS011;25639;53.634;9.880;2024-02-26T13:41:20;36.58;;;18.58;;
39958;SDS011;25639;53.634;9.880;2024-02-26T13:43:46;33.42;;;17.27;;
39958;SDS011;25639;53.634;9.880;2024-02-26T13:46:12;34.50;;;16.85;;
39958;SDS011;25639;53.634;9.880;2024-02-26T13:48:39;32.92;;;16.65;;
39958;SDS011;25639;53.634;9.880;2024-02-26T13:51:04;34.83;;;17.63;;
39958;SDS011;25639;53.634;9.880;2024-02-26T13:53:30;30.05;;;15.23;;
39958;SDS011;25639;53.634;9.880;2024-02-26T13:55:55;31.98;;;15.15;;
39958;SDS011;25639;53.634;9.880;2024-02-26T13:58:22;32.28;;;15.40;;
39958;SDS011;25639;53.634;9.880;2024-02-26T14:00:48;30.77;;;16.35;;
39958;SDS011;25639;53.634;9.880;2024-02-26T14:03:14;32.63;;;16.67;;
39958;SDS011;25639;53.634;9.880;2024-02-26T14:05:39;31.75;;;16.33;;
39958;SDS011;25639;53.634;9.880;2024-02-26T14:08:05;28.88;;;15.02;;
39958;SDS011;25639;53.634;9.880;2024-02-26T14:10:31;31.25;;;16.23;;
39958;SDS011;25639;53.634;9.880;2024-02-26T14:12:57;30.55;;;16.00;;
39958;SDS011;25639;53.634;9.880;2024-02-26T14:15:22;30.02;;;15.32;;
39958;SDS011;25639;53.634;9.880;2024-02-26T14:17:49;29.33;;;15.75;;
39958;SDS011;25639;53.634;9.880;2024-02-26T14:20:21;28.80;;;15.52;;
39958;SDS011;25639;53.634;9.880;2024-02-26T14:22:48;29.33;;;15.38;;
39958;SDS011;25639;53.634;9.880;2024-02-26T14:25:13;28.63;;;15.95;;
39958;SDS011;25639;53.634;9.880;2024-02-26T14:27:39;28.80;;;16.05;;
39958;SDS011;25639;53.634;9.880;2024-02-26T14:30:04;29.45;;;16.50;;
39958;SDS011;25639;53.634;9.880;2024-02-26T14:32:30;28.52;;;15.90;;